Terminal Aerodrome Forecast
Issued by NWS Cleveland, OH

Home | Current Version | Previous Version | Text Only | Print | Product List | Glossary Off
Versions: 1 2 3 4 5 6 7 8 9 10 11 12 13 14 15 16 17

000
FTUS41 KCLE 200700 AAA
TAFYNG
TAF AMD
KYNG 200735Z 2008/2106 32012KT P6SM OVC025
      TEMPO 2009/2013 SCT025 OVC035
     FM201300 32008KT P6SM BKN250
     FM202300 35007KT P6SM OVC100
     FM210100 VRB02KT P6SM OVC100=

USA.gov is the U.S. government's official web portal to all federal, state and local government web resources and services.